Wrington, United Kingdom
Current Conditions -  °F | °C
As of 8:50 PM on Friday 21 Nov 2014 (Local Time) from EGGD Reporting Station
Broken Clouds Broken Clouds  
Wind Chill: 10°   Ceiling: 600
Heat Index: 10°   Visibility: 2.3mi
Dew Point:   Wind: 9mph
Humidity: 94%   Direction: 120°ESE
Pressure: 29.83"   Gusts: NA
Location:  51.36°N, 2.76°W
Report Text: EGGD 212050Z 12008KT 3800 BKN006 10/09 Q1010
Loading
Personal Weather Stations






























Interactive Weather Map New forecast layout! Learn more

10-Day Weather Forecast

Advertisements
Track Severe Weather on mobile